Boston Pilot Mystic — VHF20 — position and weather

sailwx.info

Track history (hours):
 
Tides and Currents Weather Stations Pressure Air Temp Water Temp Dewpoint Dewpoint Depression Visibility Wind Speed Wind Dir Waves Ship Positions

Boston Pilot Mystic

Last reported at 2017-Nov-20 00:25 UTC. Time now 2017-Nov-20 17:42 UTC.
Position N 42°22' W 071°02'.

Length 16 m; draft 1.5 m.

Type: Pilot. MMSI: 367029020.

Date/timePositionNaut miles runAvg speedWind from/ knotsBaromVisibWave heightAir tempDewpointWater temp
2017-Nov-20 00:25N 42°22' W 071°02'0 0.0
2017-Nov-19 23:55N 42°22' W 071°02'0 0.0
2017-Nov-19 17:29N 42°22' W 071°02'0 0.0
2017-Nov-19 16:59N 42°22' W 071°02'0 0.1
2017-Nov-19 16:47N 42°22' W 071°02'0 0.1
2017-Nov-19 16:30N 42°22' W 071°02'0 0.0
2017-Nov-19 16:04N 42°22' W 071°02'311.0
2017-Nov-19 15:46N 42°20' W 070°58'311.0
2017-Nov-19 15:31N 42°22' W 070°55'4 8.5
2017-Nov-19 15:00N 42°24' W 070°49'930.6
2017-Nov-19 14:42N 42°22' W 071°02'1 1.6
2017-Nov-19 13:57N 42°21' W 071°02'1 0.4
2017-Nov-19 10:40N 42°22' W 071°02'210.3
2017-Nov-19 10:26N 42°20' W 070°59'2 0.6
2017-Nov-19 06:14N 42°22' W 071°02'0 0.0
2017-Nov-19 05:57N 42°22' W 071°02'0 0.0
2017-Nov-19 05:29N 42°22' W 071°02'0 0.0
2017-Nov-19 04:23N 42°22' W 071°02'0 0.2
2017-Nov-19 04:13N 42°22' W 071°02'416.2
2017-Nov-19 03:59N 42°20' W 070°57'4192.2
2017-Nov-19 03:58N 42°22' W 071°02'0 0.0
2017-Nov-19 03:30N 42°22' W 071°02'426.1
2017-Nov-19 03:21N 42°20' W 070°57'3 8.4
2017-Nov-19 03:00N 42°21' W 071°01'152.2
2017-Nov-19 02:59N 42°22' W 071°02'0 0.0
2017-Nov-19 02:30N 42°22' W 071°02'1 3.1
2017-Nov-19 02:06N 42°21' W 071°01'0 0.7
2017-Nov-19 02:00N 42°21' W 071°01'117.2
2017-Nov-19 01:55N 42°22' W 071°02'0 0.0
2017-Nov-19 01:30N 42°22' W 071°02'321.2
2017-Nov-19 01:20N 42°20' W 070°58'310.4
2017-Nov-19 01:00N 42°22' W 071°02'4148.7
2017-Nov-19 00:58N 42°21' W 070°56'4 9.4
2017-Nov-19 00:30N 42°24' W 070°51'8550.7
2017-Nov-19 00:30N 42°22' W 071°02'0 0.0
2017-Nov-19 00:00N 42°22' W 071°02'5140.6
2017-Nov-18 23:58N 42°22' W 070°56'4 9.5
2017-Nov-18 23:30N 42°21' W 071°01'1144.7
2017-Nov-18 23:30N 42°22' W 071°02'0 0.0
2017-Nov-18 22:46N 42°22' W 071°02'0 0.0
2017-Nov-18 22:30N 42°22' W 071°02'0 0.0
2017-Nov-18 21:58N 42°22' W 071°02'0 0.0
2017-Nov-18 21:30N 42°22' W 071°02'0 0.0
2017-Nov-18 21:00N 42°22' W 071°02'0 0.0
2017-Nov-18 20:30N 42°22' W 071°02'0 0.0
2017-Nov-18 20:00N 42°22' W 071°02'0 0.0
2017-Nov-18 19:13N 42°22' W 071°02'0 0.0
2017-Nov-18 18:55N 42°22' W 071°02'0 0.0
2017-Nov-18 16:29N 42°22' W 071°02'0 0.0
2017-Nov-18 15:52N 42°22' W 071°02'0 0.0
2017-Nov-18 15:30N 42°22' W 071°02'0 0.0
2017-Nov-18 14:59N 42°22' W 071°02'0 0.0
2017-Nov-18 14:35N 42°22' W 071°02'1 6.7
2017-Nov-18 14:29N 42°21' W 071°01'151.2
2017-Nov-18 14:29N 42°22' W 071°02'613.4
2017-Nov-18 14:00N 42°22' W 070°53'6948.7
2017-Nov-18 14:00N 42°22' W 071°02'1019.3
2017-Nov-18 13:30N 42°24' W 070°49'10658.1
2017-Nov-18 13:30N 42°22' W 071°02'0 0.0
2017-Nov-18 12:58N 42°22' W 071°02'841.2
2017-Nov-18 12:47N 42°23' W 070°51'2 6.1
2017-Nov-18 12:30N 42°23' W 070°54'62496.8
2017-Nov-18 12:30N 42°22' W 071°02'713.7
2017-Nov-18 12:00N 42°23' W 070°53'724562.4
2017-Nov-18 12:00N 42°22' W 071°02'0 0.0
2017-Nov-18 11:28N 42°22' W 071°02'71014.5
2017-Nov-18 11:28N 42°23' W 070°53'2 5.1
2017-Nov-18 11:00N 42°24' W 070°50'94064.5
2017-Nov-18 11:00N 42°22' W 071°02'611.2
2017-Nov-18 10:30N 42°22' W 070°54'6130.4
2017-Nov-18 10:28N 42°22' W 071°02'0 0.4
2017-Nov-18 10:00N 42°22' W 071°02'0104.4
2017-Nov-18 10:00N 42°22' W 071°02'0 0.0
2017-Nov-18 09:30N 42°22' W 071°02'0 3.6
2017-Nov-18 09:30N 42°22' W 071°02'0 0.0
2017-Nov-18 09:00N 42°22' W 071°02'0 0.4
2017-Nov-18 08:59N 42°22' W 071°02'0 0.0
2017-Nov-18 08:29N 42°22' W 071°02'0 0.1
2017-Nov-18 08:19N 42°22' W 071°02'0 0.0
2017-Nov-18 07:59N 42°22' W 071°02'0 0.4
2017-Nov-18 07:57N 42°22' W 071°02'0 0.0
2017-Nov-18 07:30N 42°22' W 071°02'0 0.2
2017-Nov-18 07:25N 42°22' W 071°02'0 0.0
2017-Nov-18 06:59N 42°22' W 071°02'021.6
2017-Nov-18 06:59N 42°22' W 071°02'0 0.0
2017-Nov-18 06:30N 42°22' W 071°02'0 0.4
2017-Nov-18 06:28N 42°22' W 071°02'0 0.0
2017-Nov-18 06:00N 42°22' W 071°02'0 0.7
2017-Nov-18 05:59N 42°22' W 071°02'0 0.0
2017-Nov-18 05:30N 42°22' W 071°02'0 0.5
2017-Nov-18 05:29N 42°22' W 071°02'0 0.0
2017-Nov-18 04:59N 42°22' W 071°02'0 0.6
2017-Nov-18 04:57N 42°22' W 071°02'0 0.0
2017-Nov-18 04:29N 42°22' W 071°02'0 3.8
2017-Nov-18 04:29N 42°22' W 071°02'0 0.0
2017-Nov-18 03:57N 42°22' W 071°02'0 0.2
2017-Nov-18 03:53N 42°22' W 071°02'0 0.0
2017-Nov-18 03:30N 42°22' W 071°02'0 0.1
2017-Nov-18 03:14N 42°22' W 071°02'0 0.1
2017-Nov-18 02:58N 42°22' W 071°02'0 0.2
2017-Nov-18 02:52N 42°22' W 071°02'0 0.0
2017-Nov-18 02:28N 42°22' W 071°02'0 0.2
2017-Nov-18 02:21N 42°22' W 071°02'0 0.0
2017-Nov-18 01:54N 42°22' W 071°02'0 0.5
2017-Nov-18 01:53N 42°22' W 071°02'0 0.0
2017-Nov-18 01:29N 42°22' W 071°02'0 0.3
2017-Nov-18 01:27N 42°22' W 071°02'0 0.0
2017-Nov-18 00:59N 42°22' W 071°02'0 0.2
2017-Nov-18 00:53N 42°22' W 071°02'0 0.0
2017-Nov-18 00:29N 42°22' W 071°02'0 0.5
2017-Nov-18 00:27N 42°22' W 071°02'0 0.0
2017-Nov-17 23:59N 42°22' W 071°02'0 0.3
2017-Nov-17 23:56N 42°22' W 071°02'0 0.0
2017-Nov-17 23:30N 42°22' W 071°02'0 1.0
2017-Nov-17 23:30N 42°22' W 071°02'0 0.0
2017-Nov-17 23:00N 42°22' W 071°02'0 0.2
2017-Nov-17 22:56N 42°22' W 071°02'0 0.0
2017-Nov-17 22:29N 42°22' W 071°02'0 0.1
2017-Nov-17 22:18N 42°22' W 071°02'0 0.0
2017-Nov-17 22:00N 42°22' W 071°02'0 1.8
2017-Nov-17 21:59N 42°22' W 071°02'0 0.0
2017-Nov-17 21:30N 42°22' W 071°02'0 1.2
2017-Nov-17 21:29N 42°22' W 071°02'5 9.5
2017-Nov-17 21:00N 42°21' W 070°56'522.5
2017-Nov-17 20:47N 42°22' W 071°02'3 8.0
2017-Nov-17 20:23N 42°20' W 070°58'0 0.6
2017-Nov-17 19:59N 42°20' W 070°58'313.4
2017-Nov-17 19:46N 42°22' W 071°02'0 0.0
2017-Nov-17 19:29N 42°22' W 071°02'0 0.3
2017-Nov-17 18:05N 42°22' W 071°02'1 9.1
2017-Nov-17 18:01N 42°22' W 071°03'0 0.2
2017-Nov-17 17:30N 42°22' W 071°03'1 6.1
2017-Nov-17 17:20N 42°22' W 071°02'1 3.1
2017-Nov-17 17:00N 42°22' W 071°03'129.9
2017-Nov-17 16:58N 42°22' W 071°02'1 2.2
2017-Nov-17 16:30N 42°22' W 071°03'0 0.3
2017-Nov-17 16:01N 42°22' W 071°03'1 1.0
2017-Nov-17 15:07N 42°22' W 071°02'0 0.0
2017-Nov-17 14:56N 42°22' W 071°02'0 0.0
2017-Nov-17 14:29N 42°22' W 071°02'0 0.9
2017-Nov-17 14:28N 42°22' W 071°02'0 0.0
2017-Nov-17 14:00N 42°22' W 071°02'0 0.3
2017-Nov-17 13:57N 42°22' W 071°02'0 0.0
2017-Nov-17 13:30N 42°22' W 071°02'0 0.5
2017-Nov-17 13:29N 42°22' W 071°02'0 0.0
2017-Nov-17 13:00N 42°22' W 071°02'0 0.0
2017-Nov-17 12:29N 42°22' W 071°02'0 0.0
2017-Nov-17 12:13N 42°22' W 071°02'0 0.0
2017-Nov-17 12:01N 42°22' W 071°02'0 0.7
2017-Nov-17 11:59N 42°22' W 071°02'0 0.0
2017-Nov-17 11:30N 42°22' W 071°02'0 1.5
2017-Nov-17 11:29N 42°22' W 071°02'0 0.0
2017-Nov-17 11:00N 42°22' W 071°02'0 0.1
2017-Nov-17 10:40N 42°22' W 071°02'0 0.1
2017-Nov-17 10:30N 42°22' W 071°02'0 1.2
2017-Nov-17 10:29N 42°22' W 071°02'0 0.0
2017-Nov-17 10:00N 42°22' W 071°02'0 0.2
2017-Nov-17 09:54N 42°22' W 071°02'0 0.0
2017-Nov-17 09:29N 42°22' W 071°02'0 0.2
2017-Nov-17 09:24N 42°22' W 071°02'0 0.0
2017-Nov-17 09:00N 42°22' W 071°02'0 0.0
2017-Nov-17 08:42N 42°22' W 071°02'0 0.1
2017-Nov-17 08:29N 42°22' W 071°02'043.2
2017-Nov-17 08:29N 42°22' W 071°02'0 0.0
2017-Nov-17 08:00N 42°22' W 071°02'0 0.5
2017-Nov-17 07:57N 42°22' W 071°02'0 0.0
2017-Nov-17 07:23N 42°22' W 071°02'0 0.4
2017-Nov-17 07:21N 42°22' W 071°02'0 0.0
2017-Nov-17 04:14N 42°22' W 071°02'0 0.0
2017-Nov-17 02:33N 42°22' W 071°02'0 0.0
2017-Nov-17 02:24N 42°22' W 071°02'0 0.0
2017-Nov-17 01:15N 42°22' W 071°02'0 0.0
2017-Nov-17 00:13N 42°22' W 071°02'0 0.0
2017-Nov-16 23:59N 42°22' W 071°02'0 0.0
2017-Nov-16 22:38N 42°22' W 071°02'0 2.8
2017-Nov-16 22:38N 42°22' W 071°02'0 0.0
2017-Nov-16 22:30N 42°22' W 071°02'0 0.2
2017-Nov-16 22:25N 42°22' W 071°02'0 0.0
2017-Nov-16 21:54N 42°22' W 071°02'0 0.1
2017-Nov-16 21:42N 42°22' W 071°02'0 0.1
2017-Nov-16 21:30N 42°22' W 071°02'0 3.1
2017-Nov-16 21:30N 42°22' W 071°02'0 0.0
2017-Nov-16 21:00N 42°22' W 071°02'0 0.9
2017-Nov-16 21:00N 42°22' W 071°02'0 0.0
2017-Nov-16 20:29N 42°22' W 071°02'0 1.3
2017-Nov-16 20:29N 42°22' W 071°02'0 0.0
2017-Nov-16 20:00N 42°22' W 071°02'0 0.1
2017-Nov-16 19:52N 42°22' W 071°02'0 0.0
2017-Nov-16 19:30N 42°22' W 071°02'0 1.4
2017-Nov-16 19:29N 42°22' W 071°02'0 0.0
2017-Nov-16 19:00N 42°22' W 071°02'0 0.2
2017-Nov-16 18:54N 42°22' W 071°02'0 0.0
2017-Nov-16 18:13N 42°22' W 071°02'0 0.0
2017-Nov-16 17:59N 42°22' W 071°02'0 0.0
2017-Nov-16 17:30N 42°22' W 071°02'0 0.0
2017-Nov-16 16:59N 42°22' W 071°02'0 0.0
2017-Nov-16 16:29N 42°22' W 071°02'0 0.0
2017-Nov-16 15:59N 42°22' W 071°02'0 0.0
2017-Nov-16 15:29N 42°22' W 071°02'0 0.0
2017-Nov-16 15:00N 42°22' W 071°02'0 0.0
2017-Nov-16 14:30N 42°22' W 071°02'0 0.0
2017-Nov-16 14:00N 42°22' W 071°02'0 0.0
2017-Nov-16 13:29N 42°22' W 071°02'0 0.0
2017-Nov-16 13:00N 42°22' W 071°02'0 0.0
2017-Nov-16 12:30N 42°22' W 071°02'0 0.0
2017-Nov-16 12:00N 42°22' W 071°02'0 0.0
2017-Nov-16 11:40N 42°22' W 071°02'0 0.1
2017-Nov-16 11:23N 42°22' W 071°02'0 0.0
2017-Nov-16 11:00N 42°22' W 071°02'0 0.2
2017-Nov-16 10:35N 42°22' W 071°02'0 1.1
2017-Nov-16 10:30N 42°22' W 071°02'323.7
2017-Nov-16 10:22N 42°20' W 070°58'3 8.4
2017-Nov-16 10:00N 42°22' W 071°02'6713.8
2017-Nov-16 10:00N 42°23' W 070°53'612.9
2017-Nov-16 09:30N 42°22' W 071°02'441.9
2017-Nov-16 09:24N 42°20' W 070°57'410.3
2017-Nov-16 09:00N 42°22' W 071°02'139.0
2017-Nov-16 08:58N 42°21' W 071°01'1 2.6
2017-Nov-16 08:30N 42°22' W 071°02'0 0.3
2017-Nov-16 08:29N 42°22' W 071°02'0 0.0
2017-Nov-16 08:00N 42°22' W 071°02'0 0.3
2017-Nov-16 07:59N 42°22' W 071°02'0 0.0
2017-Nov-16 07:30N 42°22' W 071°02'0 0.2
2017-Nov-16 07:27N 42°22' W 071°02'0 0.0
2017-Nov-16 07:00N 42°22' W 071°02'0 0.0
2017-Nov-16 06:50N 42°22' W 071°02'0 0.0
2017-Nov-16 06:30N 42°22' W 071°02'0 0.1
2017-Nov-16 06:26N 42°22' W 071°02'0 0.0
2017-Nov-16 05:58N 42°22' W 071°02'380.6
2017-Nov-16 05:56N 42°20' W 070°59'3 6.1
2017-Nov-16 05:30N 42°22' W 071°02'53743.9
2017-Nov-16 05:30N 42°22' W 070°55'510.4
2017-Nov-16 05:00N 42°22' W 071°02'167.2
2017-Nov-16 04:59N 42°21' W 071°01'1 2.9
2017-Nov-16 04:29N 42°22' W 071°02'0 0.0
2017-Nov-16 03:59N 42°22' W 071°02'0 0.0
2017-Nov-16 03:30N 42°22' W 071°02'0 0.0
2017-Nov-16 03:00N 42°22' W 071°02'0 0.0
2017-Nov-16 02:30N 42°22' W 071°02'0 0.0
2017-Nov-16 02:00N 42°22' W 071°02'0 0.0
2017-Nov-16 01:43N 42°22' W 071°02'0 0.1
2017-Nov-16 01:30N 42°22' W 071°02'0 0.2
2017-Nov-16 01:26N 42°22' W 071°02'0 0.0
2017-Nov-16 01:00N 42°22' W 071°02'0 1.9
2017-Nov-16 01:00N 42°22' W 071°02'0 0.0
2017-Nov-16 00:29N 42°22' W 071°02'0 1.9
2017-Nov-16 00:29N 42°22' W 071°02'0 0.0
2017-Nov-16 00:00N 42°22' W 071°02'0 0.2
2017-Nov-15 23:56N 42°22' W 071°02'0 0.0
2017-Nov-15 23:30N 42°22' W 071°02'0 1.8
2017-Nov-15 23:30N 42°22' W 071°02'0 0.0
2017-Nov-15 23:00N 42°22' W 071°02'0 0.3
2017-Nov-15 22:58N 42°22' W 071°02'0 0.0
2017-Nov-15 22:30N 42°22' W 071°02'0 0.5
2017-Nov-15 22:28N 42°22' W 071°02'0 0.0
2017-Nov-15 22:00N 42°22' W 071°02'0 1.2
2017-Nov-15 21:59N 42°22' W 071°02'0 0.0
2017-Nov-15 21:30N 42°22' W 071°02'0 2.7
2017-Nov-15 21:30N 42°22' W 071°02'0 0.0
2017-Nov-15 21:00N 42°22' W 071°02'0 0.8
2017-Nov-15 20:59N 42°22' W 071°02'0 0.0
2017-Nov-15 20:30N 42°22' W 071°02'0 1.5
2017-Nov-15 20:29N 42°22' W 071°02'0 0.0
2017-Nov-15 19:58N 42°22' W 071°02'0 0.4
2017-Nov-15 19:56N 42°22' W 071°02'0 0.0
2017-Nov-15 19:30N 42°22' W 071°02'0 2.9
2017-Nov-15 19:29N 42°22' W 071°02'0 0.0
2017-Nov-15 18:55N 42°22' W 071°02'0 0.0
2017-Nov-15 18:27N 42°22' W 071°02'0 0.0
2017-Nov-15 17:59N 42°22' W 071°02'0 0.0
2017-Nov-15 17:26N 42°22' W 071°02'0 0.0
2017-Nov-15 16:52N 42°22' W 071°02'0 0.0
2017-Nov-15 16:30N 42°22' W 071°02'1 1.6
2017-Nov-15 15:59N 42°22' W 071°03'142.0
2017-Nov-15 15:58N 42°22' W 071°02'0 0.0
2017-Nov-15 15:26N 42°22' W 071°02'229.0
2017-Nov-15 15:21N 42°20' W 070°60'2 4.6
2017-Nov-15 14:53N 42°22' W 071°02'6294.4
2017-Nov-15 14:51N 42°23' W 070°53'616.9
2017-Nov-15 14:29N 42°22' W 071°02'52488.2
2017-Nov-15 14:29N 42°22' W 070°55'2 3.8
2017-Nov-15 14:00N 42°23' W 070°53'744.1
2017-Nov-15 13:51N 42°22' W 071°02'616.8
2017-Nov-15 13:28N 42°23' W 070°53'639.0
2017-Nov-15 13:18N 42°22' W 071°02'0 0.0
2017-Nov-15 13:00N 42°22' W 071°02'4215.5
2017-Nov-15 12:59N 42°21' W 070°56'4 8.7
2017-Nov-15 12:29N 42°22' W 071°02'7182.7
2017-Nov-15 12:27N 42°23' W 070°53'4 9.6
2017-Nov-15 12:00N 42°20' W 070°58'3108.2
2017-Nov-15 11:58N 42°22' W 071°02'0 0.0
2017-Nov-15 11:30N 42°22' W 071°02'341.6
2017-Nov-15 11:26N 42°20' W 070°59'3 6.4
2017-Nov-15 11:00N 42°22' W 071°02'0 0.3
2017-Nov-15 10:56N 42°22' W 071°02'0 0.0
2017-Nov-15 10:30N 42°22' W 071°02'0 0.1
2017-Nov-15 10:22N 42°22' W 071°02'0 0.0
2017-Nov-15 10:00N 42°22' W 071°02'0 0.0
2017-Nov-15 09:30N 42°22' W 071°02'0 0.1
2017-Nov-15 09:10N 42°22' W 071°02'0 0.1
2017-Nov-15 08:59N 42°22' W 071°02'0 0.1
2017-Nov-15 08:47N 42°22' W 071°02'0 0.0
2017-Nov-15 08:29N 42°22' W 071°02'0 1.4
2017-Nov-15 08:28N 42°22' W 071°02'0 0.0
2017-Nov-15 07:58N 42°22' W 071°02'0 0.0
2017-Nov-15 07:19N 42°22' W 071°02'0 0.0
2017-Nov-15 06:43N 42°22' W 071°02'0 0.0
2017-Nov-15 06:22N 42°22' W 071°02'0 0.0
2017-Nov-15 06:07N 42°22' W 071°02'0 0.0
2017-Nov-15 05:59N 42°22' W 071°02'0 0.1
2017-Nov-15 05:50N 42°22' W 071°02'0 0.0
2017-Nov-15 05:25N 42°22' W 071°02'0 0.0
2017-Nov-15 05:00N 42°22' W 071°02'0 0.1
2017-Nov-15 04:51N 42°22' W 071°02'0 0.0
2017-Nov-15 04:28N 42°22' W 071°02'0 0.1
2017-Nov-15 04:21N 42°22' W 071°02'0 0.0
2017-Nov-15 03:57N 42°22' W 071°02'0 7.2
2017-Nov-15 03:57N 42°22' W 071°02'0 0.0
2017-Nov-15 03:30N 42°22' W 071°02'6 9.6
2017-Nov-15 02:50N 42°23' W 070°53'411.3
2017-Nov-15 02:30N 42°20' W 070°57'411.9
2017-Nov-15 02:09N 42°22' W 071°02'0 0.0
2017-Nov-15 01:59N 42°22' W 071°02'0 0.1
2017-Nov-15 01:57N 42°22' W 071°02'0 0.0
2017-Nov-15 01:29N 42°22' W 071°02'0 0.7
2017-Nov-15 01:29N 42°22' W 071°02'0 0.0
2017-Nov-15 01:00N 42°22' W 071°02'0 0.2
2017-Nov-15 00:59N 42°22' W 071°02'0 0.0
2017-Nov-15 00:29N 42°22' W 071°02'0 0.2
2017-Nov-15 00:28N 42°22' W 071°02'0 0.0
2017-Nov-15 00:00N 42°22' W 071°02'0 0.1
2017-Nov-14 23:56N 42°22' W 071°02'0 0.0
2017-Nov-14 23:28N 42°22' W 071°02'0 1.2
2017-Nov-14 23:28N 42°22' W 071°02'0 0.0
2017-Nov-14 23:00N 42°22' W 071°02'5 9.0
2017-Nov-14 22:24N 42°22' W 070°55'511.7
2017-Nov-14 22:00N 42°24' W 070°49'4 7.8
2017-Nov-14 21:30N 42°25' W 070°55'0 0.6
2017-Nov-14 21:00N 42°25' W 070°54'2 4.6
2017-Nov-14 20:30N 42°24' W 070°51'839.0
2017-Nov-14 20:18N 42°22' W 071°02'4 8.7
2017-Nov-14 19:52N 42°20' W 070°57'4 3.8
2017-Nov-14 18:53N 42°22' W 071°02'0 0.0
2017-Nov-14 18:30N 42°22' W 071°02'0 0.0
2017-Nov-14 17:56N 42°22' W 071°02'0 0.0
2017-Nov-14 16:11N 42°22' W 071°02'0 0.1
2017-Nov-14 15:54N 42°22' W 071°02'0 0.1
2017-Nov-14 15:44N 42°22' W 071°02'0 0.0
2017-Nov-14 15:29N 42°22' W 071°02'0 0.5
2017-Nov-14 15:26N 42°22' W 071°02'0 0.0
2017-Nov-14 14:53N 42°22' W 071°02'0 0.2
2017-Nov-14 14:48N 42°22' W 071°02'0 0.0
2017-Nov-14 14:26N 42°22' W 071°02'0 0.9
2017-Nov-14 14:25N 42°22' W 071°02'0 0.0
2017-Nov-14 13:59N 42°22' W 071°02'0 0.1
2017-Nov-14 13:49N 42°22' W 071°02'0 0.0
2017-Nov-14 13:30N 42°22' W 071°02'0 0.5
2017-Nov-14 13:27N 42°22' W 071°02'0 0.0
2017-Nov-14 12:59N 42°22' W 071°02'0 1.1
2017-Nov-14 12:58N 42°22' W 071°02'0 0.0
2017-Nov-14 12:30N 42°22' W 071°02'0 1.0
2017-Nov-14 12:29N 42°22' W 071°02'2 4.0
2017-Nov-14 12:01N 42°23' W 071°03'232.7
2017-Nov-14 11:57N 42°22' W 071°02'0 0.0
2017-Nov-14 11:30N 42°22' W 071°02'3187.1
2017-Nov-14 11:30N 42°20' W 070°59'611.5
2017-Nov-14 11:00N 42°23' W 070°52'71143.9
2017-Nov-14 11:00N 42°22' W 071°02'1019.9
2017-Nov-14 10:30N 42°24' W 070°49'10600.9
2017-Nov-14 10:29N 42°22' W 071°02'714.4
2017-Nov-14 10:00N 42°24' W 070°53'0 0.8
2017-Nov-14 09:30N 42°24' W 070°53'2 4.7
2017-Nov-14 09:00N 42°24' W 070°50'915.6
2017-Nov-14 08:25N 42°22' W 071°02'1 5.8
2017-Nov-14 08:11N 42°21' W 071°01'1 2.0
2017-Nov-14 07:33N 42°22' W 071°02'0 0.0
2017-Nov-14 07:07N 42°22' W 071°02'0 1.0
2017-Nov-14 07:06N 42°22' W 071°02'0 0.2
2017-Nov-14 06:59N 42°22' W 071°02'013.0
2017-Nov-14 06:59N 42°22' W 071°02'0 0.0
2017-Nov-14 06:28N 42°22' W 071°02'0 1.2
2017-Nov-14 06:27N 42°22' W 071°02'0 0.0
2017-Nov-14 05:57N 42°22' W 071°02'0 0.4
2017-Nov-14 05:56N 42°22' W 071°02'0 0.0
2017-Nov-14 02:56N 42°22' W 071°02'0 0.0
2017-Nov-14 02:29N 42°22' W 071°02'0 0.0
2017-Nov-14 01:57N 42°22' W 071°02'2104.0
2017-Nov-14 01:56N 42°20' W 070°59'714.7
2017-Nov-14 01:29N 42°24' W 070°52'829.3
2017-Nov-14 01:13N 42°22' W 071°02'0 0.0
2017-Nov-14 00:57N 42°22' W 071°02'464.3
2017-Nov-14 00:53N 42°20' W 070°56'4 3.8
2017-Nov-13 23:44N 42°22' W 071°02'1 8.6
2017-Nov-13 23:36N 42°21' W 071°01'1 2.4
2017-Nov-13 23:21N 42°21' W 071°02'611.8
2017-Nov-13 22:53N 42°23' W 070°54'677.7
2017-Nov-13 22:49N 42°22' W 071°02'3 9.8
2017-Nov-13 22:29N 42°20' W 070°58'3 0.2
2017-Nov-13 01:45N 42°22' W 071°02'0 0.0
2017-Nov-13 01:25N 42°22' W 071°02'3 6.1
2017-Nov-13 00:55N 42°20' W 070°58'4 5.9
2017-Nov-13 00:17N 42°23' W 070°54'2 7.9
2017-Nov-13 00:00N 42°24' W 070°51'6 7.5
2017-Nov-12 23:15N 42°20' W 070°58'4 2.5
2017-Nov-12 21:51N 42°22' W 071°02'0 0.0
2017-Nov-12 17:55N 42°22' W 071°02'0 0.0
2017-Nov-12 17:30N 42°22' W 071°02'0 0.0
2017-Nov-12 16:49N 42°22' W 071°02'0 0.0
2017-Nov-12 13:58N 42°22' W 071°02'0 0.0
2017-Nov-12 13:30N 42°22' W 071°02'0 0.0
2017-Nov-12 13:04N 42°22' W 071°02'0 0.2
2017-Nov-12 13:00N 42°22' W 071°02'0 0.2
2017-Nov-12 12:54N 42°22' W 071°02'0 0.0
2017-Nov-12 12:30N 42°22' W 071°02'0 0.5
2017-Nov-12 12:28N 42°22' W 071°02'0 0.0
2017-Nov-12 12:01N 42°22' W 071°02'0 1.7
2017-Nov-12 12:00N 42°22' W 071°02'0 0.0
2017-Nov-12 11:31N 42°22' W 071°02'0 1.4
2017-Nov-12 11:30N 42°22' W 071°02'0 0.0
2017-Nov-12 10:52N 42°22' W 071°02'0 0.0
2017-Nov-12 10:20N 42°22' W 071°02'0 0.1
2017-Nov-12 10:04N 42°22' W 071°02'0 0.0
2017-Nov-12 10:00N 42°22' W 071°02'0 1.1
2017-Nov-12 09:59N 42°22' W 071°02'0 0.0
2017-Nov-12 09:30N 42°22' W 071°02'445.6
2017-Nov-12 09:26N 42°20' W 070°57'716.4
2017-Nov-12 09:00N 42°24' W 070°49'10433.3
2017-Nov-12 08:59N 42°22' W 071°02'4 8.0
2017-Nov-12 08:27N 42°21' W 070°56'4 9.9
2017-Nov-12 08:00N 42°22' W 071°02'0 0.0
2017-Nov-12 07:28N 42°22' W 071°02'0 0.0
2017-Nov-12 07:00N 42°22' W 071°02'0 0.0
2017-Nov-12 06:30N 42°22' W 071°02'0 0.1
2017-Nov-12 06:10N 42°22' W 071°02'0 0.1
2017-Nov-12 06:00N 42°22' W 071°02'0 0.2
2017-Nov-12 05:57N 42°22' W 071°02'0 0.0
2017-Nov-12 05:29N 42°22' W 071°02'0 0.9
2017-Nov-12 05:28N 42°22' W 071°02'0 0.0
2017-Nov-12 05:00N 42°22' W 071°02'0 0.9
2017-Nov-12 04:59N 42°22' W 071°02'0 0.0
2017-Nov-12 04:28N 42°22' W 071°02'0 0.2
2017-Nov-12 04:24N 42°22' W 071°02'0 0.0
2017-Nov-12 04:00N 42°22' W 071°02'0 0.2
2017-Nov-12 03:57N 42°22' W 071°02'0 0.0
2017-Nov-12 03:30N 42°22' W 071°02'0 0.5
2017-Nov-12 03:28N 42°22' W 071°02'0 0.0
2017-Nov-12 03:00N 42°22' W 071°02'0 0.0
2017-Nov-12 02:38N 42°22' W 071°02'0 0.1
2017-Nov-12 02:29N 42°22' W 071°02'0 0.4
2017-Nov-12 02:26N 42°22' W 071°02'0 0.0
2017-Nov-12 01:57N 42°22' W 071°02'0 0.4
2017-Nov-12 01:55N 42°22' W 071°02'0 0.0
2017-Nov-12 01:30N 42°22' W 071°02'0 0.1
2017-Nov-12 01:21N 42°22' W 071°02'0 0.0
2017-Nov-12 00:57N 42°22' W 071°02'0 0.0
2017-Nov-12 00:40N 42°22' W 071°02'0 0.0
2017-Nov-12 00:28N 42°22' W 071°02'0 0.0
2017-Nov-11 23:52N 42°22' W 071°02'0 0.1
2017-Nov-11 23:40N 42°22' W 071°02'0 0.0
2017-Nov-11 23:28N 42°22' W 071°02'3 4.5
2017-Nov-11 22:51N 42°20' W 070°59'2 5.1
2017-Nov-11 22:23N 42°21' W 070°56'4 7.7
2017-Nov-11 21:54N 42°21' W 071°01'1 4.5
2017-Nov-11 21:34N 42°22' W 071°02'0 0.0
2017-Nov-11 21:30N 42°22' W 071°02'0 0.2
2017-Nov-11 21:29N 42°22' W 071°02'0 0.0
2017-Nov-11 20:59N 42°22' W 071°02'0 0.0
2017-Nov-11 20:31N 42°22' W 071°02'0 0.0
2017-Nov-11 19:42N 42°22' W 071°02'0 0.0
2017-Nov-11 18:27N 42°22' W 071°02'6 9.4
2017-Nov-11 17:47N 42°22' W 070°53'6 2.0
2017-Nov-11 14:39N 42°22' W 071°02'1 4.6
2017-Nov-11 14:28N 42°22' W 071°03'0 0.3
2017-Nov-11 14:00N 42°22' W 071°03'5 9.4
2017-Nov-11 13:30N 42°20' W 070°57'4 3.2
2017-Nov-11 12:18N 42°22' W 071°02'0 0.0
2017-Nov-11 12:02N 42°22' W 071°02'0 0.2
2017-Nov-11 12:00N 42°22' W 071°02'0 0.4
2017-Nov-11 11:59N 42°22' W 071°02'0 0.0
2017-Nov-11 11:30N 42°22' W 071°02'0 1.1
2017-Nov-11 11:30N 42°22' W 071°02'0 0.0
2017-Nov-11 11:00N 42°22' W 071°02'0 1.1
2017-Nov-11 11:00N 42°22' W 071°02'0 0.0
2017-Nov-11 10:30N 42°22' W 071°02'0 0.1
2017-Nov-11 10:24N 42°22' W 071°02'0 0.0
2017-Nov-11 10:00N 42°22' W 071°02'315.7
2017-Nov-11 09:50N 42°20' W 070°59'3 8.0
2017-Nov-11 09:30N 42°22' W 071°02'5212.4
2017-Nov-11 09:29N 42°22' W 070°55'510.3
2017-Nov-11 09:00N 42°22' W 071°02'8249.7
2017-Nov-11 08:58N 42°24' W 070°51'817.5
2017-Nov-11 08:29N 42°22' W 071°02'1 4.6
2017-Nov-11 08:13N 42°21' W 071°01'1 6.1
2017-Nov-11 08:00N 42°22' W 071°02'0 0.4
2017-Nov-11 07:58N 42°22' W 071°02'0 0.0
2017-Nov-11 07:30N 42°22' W 071°02'0 0.0
2017-Nov-11 06:59N 42°22' W 071°02'0 0.0
2017-Nov-11 06:30N 42°22' W 071°02'0 0.0
2017-Nov-11 06:00N 42°22' W 071°02'0 0.0
2017-Nov-11 05:30N 42°22' W 071°02'0 0.0
2017-Nov-11 05:00N 42°22' W 071°02'0 3.3
2017-Nov-11 05:00N 42°22' W 071°02'0 0.0
2017-Nov-11 04:29N 42°22' W 071°02'0 0.2
2017-Nov-11 04:26N 42°22' W 071°02'0 0.0
2017-Nov-11 04:00N 42°22' W 071°02'0 0.2
2017-Nov-11 03:56N 42°22' W 071°02'0 0.0
2017-Nov-11 03:29N 42°22' W 071°02'0 0.2
2017-Nov-11 03:26N 42°22' W 071°02'0 0.0
2017-Nov-11 02:59N 42°22' W 071°02'0 0.0
2017-Nov-11 02:32N 42°22' W 071°02'0 0.2
2017-Nov-11 02:25N 42°22' W 071°02'0 0.3
2017-Nov-11 02:21N 42°22' W 071°02'0 0.0
2017-Nov-11 01:55N 42°22' W 071°02'0 0.0
2017-Nov-10 22:15N 42°22' W 071°02'0 0.1
2017-Nov-10 22:10N 42°22' W 071°02'0 0.0
2017-Nov-10 22:00N 42°22' W 071°02'0 0.4
2017-Nov-10 21:57N 42°22' W 071°02'0 0.0
2017-Nov-10 21:30N 42°22' W 071°02'0 0.0
2017-Nov-10 21:00N 42°22' W 071°02'0 0.0
2017-Nov-10 20:30N 42°22' W 071°02'0 0.3
2017-Nov-10 20:27N 42°22' W 071°02'0 0.7
2017-Nov-10 20:00N 42°21' W 071°02'022.2
2017-Nov-10 19:59N 42°22' W 071°02'0 0.0
2017-Nov-10 19:29N 42°22' W 071°02'61246.9
2017-Nov-10 19:29N 42°23' W 070°54'3 6.7
2017-Nov-10 19:00N 42°24' W 070°51'3 6.2
2017-Nov-10 18:29N 42°22' W 070°54'610.2
2017-Nov-10 17:56N 42°22' W 071°02'611.1
2017-Nov-10 17:24N 42°23' W 070°54'3 8.9
2017-Nov-10 17:00N 42°25' W 070°50'9 4.8
2017-Nov-10 15:05N 42°22' W 071°02'0 0.1
2017-Nov-10 15:00N 42°22' W 071°02'0 0.0
2017-Nov-10 14:28N 42°22' W 071°02'0 0.0
2017-Nov-10 14:00N 42°22' W 071°02'0 1.4
2017-Nov-10 14:00N 42°22' W 071°02'0 0.0
2017-Nov-10 13:20N 42°22' W 071°02'0 2.9
2017-Nov-10 13:20N 42°22' W 071°02'0 0.0
2017-Nov-10 12:59N 42°22' W 071°02'0 0.8
2017-Nov-10 12:59N 42°22' W 071°02'0 0.0
2017-Nov-10 12:30N 42°22' W 071°02'0 0.6
2017-Nov-10 12:29N 42°22' W 071°02'0 0.0
2017-Nov-10 11:59N 42°22' W 071°02'0 0.2
2017-Nov-10 11:56N 42°22' W 071°02'0 0.0
2017-Nov-10 11:29N 42°22' W 071°02'0 0.9
2017-Nov-10 11:28N 42°22' W 071°02'0 0.0
2017-Nov-10 11:00N 42°22' W 071°02'0 0.0
2017-Nov-10 09:38N 42°22' W 071°02'0 0.0
2017-Nov-10 09:12N 42°22' W 071°02'0 0.0
2017-Nov-10 08:58N 42°22' W 071°02'0 0.0
2017-Nov-10 08:03N 42°22' W 071°02'0 0.0
2017-Nov-10 07:51N 42°22' W 071°02'0 0.0
2017-Nov-10 07:17N 42°22' W 071°02'0 0.0
2017-Nov-10 06:59N 42°22' W 071°02'0 0.1
2017-Nov-10 06:42N 42°22' W 071°02'0 0.0
2017-Nov-10 06:30N 42°22' W 071°02'0 1.2
2017-Nov-10 06:29N 42°22' W 071°02'0 0.0
2017-Nov-10 05:59N 42°22' W 071°02'0 1.3
2017-Nov-10 05:59N 42°22' W 071°02'0 0.0
2017-Nov-10 05:30N 42°22' W 071°02'0 0.2
2017-Nov-10 05:26N 42°22' W 071°02'0 0.0
2017-Nov-10 04:59N 42°22' W 071°02'0 0.5
2017-Nov-10 04:58N 42°22' W 071°02'0 0.0
2017-Nov-10 04:28N 42°22' W 071°02'0 8.1
2017-Nov-10 04:28N 42°22' W 071°02'0 0.0
2017-Nov-10 04:00N 42°22' W 071°02'0 4.6
2017-Nov-10 04:00N 42°22' W 071°02'0 0.0
2017-Nov-10 03:29N 42°22' W 071°02'016.2
2017-Nov-10 03:29N 42°22' W 071°02'0 0.0
2017-Nov-10 03:00N 42°22' W 071°02'0 0.8
2017-Nov-10 02:59N 42°22' W 071°02'0 0.0
2017-Nov-10 02:30N 42°22' W 071°02'0 1.0
2017-Nov-10 02:30N 42°22' W 071°02'0 0.0
2017-Nov-10 01:59N 42°22' W 071°02'0 1.1
2017-Nov-10 01:58N 42°22' W 071°02'0 0.0
2017-Nov-10 01:28N 42°22' W 071°02'0 1.5
2017-Nov-10 01:27N 42°22' W 071°02'0 0.0
2017-Nov-10 00:59N 42°22' W 071°02'0 0.3
2017-Nov-10 00:55N 42°22' W 071°02'0 0.0
2017-Nov-10 00:30N 42°22' W 071°02'0 1.0
2017-Nov-10 00:30N 42°22' W 071°02'  
Track history (hours):
 
Tides and Currents Weather Stations Pressure Air Temp Water Temp Dewpoint Dewpoint Depression Visibility Wind Speed Wind Dir Waves Ship Positions

Boston Pilot Mystic

Last reported at 2017-Nov-20 00:25 UTC. Time now 2017-Nov-20 17:42 UTC.
Position N 42°22' W 071°02'.

Length 16 m; draft 1.5 m.

Type: Pilot. MMSI: 367029020.

Date/timePositionNaut miles runAvg speedWind from/ knotsBaromVisibWave heightAir tempDewpointWater temp
2017-Nov-20 00:25N 42°22' W 071°02'0 0.0
2017-Nov-19 23:55N 42°22' W 071°02'0 0.0
2017-Nov-19 17:29N 42°22' W 071°02'0 0.0
2017-Nov-19 16:59N 42°22' W 071°02'0 0.1
2017-Nov-19 16:47N 42°22' W 071°02'0 0.1
2017-Nov-19 16:30N 42°22' W 071°02'0 0.0
2017-Nov-19 16:04N 42°22' W 071°02'311.0
2017-Nov-19 15:46N 42°20' W 070°58'311.0
2017-Nov-19 15:31N 42°22' W 070°55'4 8.5
2017-Nov-19 15:00N 42°24' W 070°49'930.6
2017-Nov-19 14:42N 42°22' W 071°02'1 1.6
2017-Nov-19 13:57N 42°21' W 071°02'1 0.4
2017-Nov-19 10:40N 42°22' W 071°02'210.3
2017-Nov-19 10:26N 42°20' W 070°59'2 0.6
2017-Nov-19 06:14N 42°22' W 071°02'0 0.0
2017-Nov-19 05:57N 42°22' W 071°02'0 0.0
2017-Nov-19 05:29N 42°22' W 071°02'0 0.0
2017-Nov-19 04:23N 42°22' W 071°02'0 0.2
2017-Nov-19 04:13N 42°22' W 071°02'416.2
2017-Nov-19 03:59N 42°20' W 070°57'4192.2
2017-Nov-19 03:58N 42°22' W 071°02'0 0.0
2017-Nov-19 03:30N 42°22' W 071°02'426.1
2017-Nov-19 03:21N 42°20' W 070°57'3 8.4
2017-Nov-19 03:00N 42°21' W 071°01'152.2
2017-Nov-19 02:59N 42°22' W 071°02'0 0.0
2017-Nov-19 02:30N 42°22' W 071°02'1 3.1
2017-Nov-19 02:06N 42°21' W 071°01'0 0.7
2017-Nov-19 02:00N 42°21' W 071°01'117.2
2017-Nov-19 01:55N 42°22' W 071°02'0 0.0
2017-Nov-19 01:30N 42°22' W 071°02'321.2
2017-Nov-19 01:20N 42°20' W 070°58'310.4
2017-Nov-19 01:00N 42°22' W 071°02'4148.7
2017-Nov-19 00:58N 42°21' W 070°56'4 9.4
2017-Nov-19 00:30N 42°24' W 070°51'8550.7
2017-Nov-19 00:30N 42°22' W 071°02'0 0.0
2017-Nov-19 00:00N 42°22' W 071°02'5140.6
2017-Nov-18 23:58N 42°22' W 070°56'4 9.5
2017-Nov-18 23:30N 42°21' W 071°01'1144.7
2017-Nov-18 23:30N 42°22' W 071°02'0 0.0
2017-Nov-18 22:46N 42°22' W 071°02'0 0.0
2017-Nov-18 22:30N 42°22' W 071°02'0 0.0
2017-Nov-18 21:58N 42°22' W 071°02'0 0.0
2017-Nov-18 21:30N 42°22' W 071°02'0 0.0
2017-Nov-18 21:00N 42°22' W 071°02'0 0.0
2017-Nov-18 20:30N 42°22' W 071°02'0 0.0
2017-Nov-18 20:00N 42°22' W 071°02'0 0.0
2017-Nov-18 19:13N 42°22' W 071°02'0 0.0
2017-Nov-18 18:55N 42°22' W 071°02'0 0.0
2017-Nov-18 16:29N 42°22' W 071°02'0 0.0
2017-Nov-18 15:52N 42°22' W 071°02'0 0.0
2017-Nov-18 15:30N 42°22' W 071°02'0 0.0
2017-Nov-18 14:59N 42°22' W 071°02'0 0.0
2017-Nov-18 14:35N 42°22' W 071°02'1 6.7
2017-Nov-18 14:29N 42°21' W 071°01'151.2
2017-Nov-18 14:29N 42°22' W 071°02'613.4
2017-Nov-18 14:00N 42°22' W 070°53'6948.7
2017-Nov-18 14:00N 42°22' W 071°02'1019.3
2017-Nov-18 13:30N 42°24' W 070°49'10658.1
2017-Nov-18 13:30N 42°22' W 071°02'0 0.0
2017-Nov-18 12:58N 42°22' W 071°02'841.2
2017-Nov-18 12:47N 42°23' W 070°51'2 6.1
2017-Nov-18 12:30N 42°23' W 070°54'62496.8
2017-Nov-18 12:30N 42°22' W 071°02'713.7
2017-Nov-18 12:00N 42°23' W 070°53'724562.4
2017-Nov-18 12:00N 42°22' W 071°02'0 0.0
2017-Nov-18 11:28N 42°22' W 071°02'71014.5
2017-Nov-18 11:28N 42°23' W 070°53'2 5.1
2017-Nov-18 11:00N 42°24' W 070°50'94064.5
2017-Nov-18 11:00N 42°22' W 071°02'611.2
2017-Nov-18 10:30N 42°22' W 070°54'6130.4
2017-Nov-18 10:28N 42°22' W 071°02'0 0.4
2017-Nov-18 10:00N 42°22' W 071°02'0104.4
2017-Nov-18 10:00N 42°22' W 071°02'0 0.0
2017-Nov-18 09:30N 42°22' W 071°02'0 3.6
2017-Nov-18 09:30N 42°22' W 071°02'0 0.0
2017-Nov-18 09:00N 42°22' W 071°02'0 0.4
2017-Nov-18 08:59N 42°22' W 071°02'0 0.0
2017-Nov-18 08:29N 42°22' W 071°02'0 0.1
2017-Nov-18 08:19N 42°22' W 071°02'0 0.0
2017-Nov-18 07:59N 42°22' W 071°02'0 0.4
2017-Nov-18 07:57N 42°22' W 071°02'0 0.0
2017-Nov-18 07:30N 42°22' W 071°02'0 0.2
2017-Nov-18 07:25N 42°22' W 071°02'0 0.0
2017-Nov-18 06:59N 42°22' W 071°02'021.6
2017-Nov-18 06:59N 42°22' W 071°02'0 0.0
2017-Nov-18 06:30N 42°22' W 071°02'0 0.4
2017-Nov-18 06:28N 42°22' W 071°02'0 0.0
2017-Nov-18 06:00N 42°22' W 071°02'0 0.7
2017-Nov-18 05:59N 42°22' W 071°02'0 0.0
2017-Nov-18 05:30N 42°22' W 071°02'0 0.5
2017-Nov-18 05:29N 42°22' W 071°02'0 0.0
2017-Nov-18 04:59N 42°22' W 071°02'0 0.6
2017-Nov-18 04:57N 42°22' W 071°02'0 0.0
2017-Nov-18 04:29N 42°22' W 071°02'0 3.8
2017-Nov-18 04:29N 42°22' W 071°02'0 0.0
2017-Nov-18 03:57N 42°22' W 071°02'0 0.2
2017-Nov-18 03:53N 42°22' W 071°02'0 0.0
2017-Nov-18 03:30N 42°22' W 071°02'0 0.1
2017-Nov-18 03:14N 42°22' W 071°02'0 0.1
2017-Nov-18 02:58N 42°22' W 071°02'0 0.2
2017-Nov-18 02:52N 42°22' W 071°02'0 0.0
2017-Nov-18 02:28N 42°22' W 071°02'0 0.2
2017-Nov-18 02:21N 42°22' W 071°02'0 0.0
2017-Nov-18 01:54N 42°22' W 071°02'0 0.5
2017-Nov-18 01:53N 42°22' W 071°02'0 0.0
2017-Nov-18 01:29N 42°22' W 071°02'0 0.3
2017-Nov-18 01:27N 42°22' W 071°02'0 0.0
2017-Nov-18 00:59N 42°22' W 071°02'0 0.2
2017-Nov-18 00:53N 42°22' W 071°02'0 0.0
2017-Nov-18 00:29N 42°22' W 071°02'0 0.5
2017-Nov-18 00:27N 42°22' W 071°02'0 0.0
2017-Nov-17 23:59N 42°22' W 071°02'0 0.3
2017-Nov-17 23:56N 42°22' W 071°02'0 0.0
2017-Nov-17 23:30N 42°22' W 071°02'0 1.0
2017-Nov-17 23:30N 42°22' W 071°02'0 0.0
2017-Nov-17 23:00N 42°22' W 071°02'0 0.2
2017-Nov-17 22:56N 42°22' W 071°02'0 0.0
2017-Nov-17 22:29N 42°22' W 071°02'0 0.1
2017-Nov-17 22:18N 42°22' W 071°02'0 0.0
2017-Nov-17 22:00N 42°22' W 071°02'0 1.8
2017-Nov-17 21:59N 42°22' W 071°02'0 0.0
2017-Nov-17 21:30N 42°22' W 071°02'0 1.2
2017-Nov-17 21:29N 42°22' W 071°02'5 9.5
2017-Nov-17 21:00N 42°21' W 070°56'522.5
2017-Nov-17 20:47N 42°22' W 071°02'3 8.0
2017-Nov-17 20:23N 42°20' W 070°58'0 0.6
2017-Nov-17 19:59N 42°20' W 070°58'313.4
2017-Nov-17 19:46N 42°22' W 071°02'0 0.0
2017-Nov-17 19:29N 42°22' W 071°02'0 0.3
2017-Nov-17 18:05N 42°22' W 071°02'1 9.1
2017-Nov-17 18:01N 42°22' W 071°03'0 0.2
2017-Nov-17 17:30N 42°22' W 071°03'1 6.1
2017-Nov-17 17:20N 42°22' W 071°02'1 3.1
2017-Nov-17 17:00N 42°22' W 071°03'129.9
2017-Nov-17 16:58N 42°22' W 071°02'1 2.2
2017-Nov-17 16:30N 42°22' W 071°03'0 0.3
2017-Nov-17 16:01N 42°22' W 071°03'1 1.0
2017-Nov-17 15:07N 42°22' W 071°02'0 0.0
2017-Nov-17 14:56N 42°22' W 071°02'0 0.0
2017-Nov-17 14:29N 42°22' W 071°02'0 0.9
2017-Nov-17 14:28N 42°22' W 071°02'0 0.0
2017-Nov-17 14:00N 42°22' W 071°02'0 0.3
2017-Nov-17 13:57N 42°22' W 071°02'0 0.0
2017-Nov-17 13:30N 42°22' W 071°02'0 0.5
2017-Nov-17 13:29N 42°22' W 071°02'0 0.0
2017-Nov-17 13:00N 42°22' W 071°02'0 0.0
2017-Nov-17 12:29N 42°22' W 071°02'0 0.0
2017-Nov-17 12:13N 42°22' W 071°02'0 0.0
2017-Nov-17 12:01N 42°22' W 071°02'0 0.7
2017-Nov-17 11:59N 42°22' W 071°02'0 0.0
2017-Nov-17 11:30N 42°22' W 071°02'0 1.5
2017-Nov-17 11:29N 42°22' W 071°02'0 0.0
2017-Nov-17 11:00N 42°22' W 071°02'0 0.1
2017-Nov-17 10:40N 42°22' W 071°02'0 0.1
2017-Nov-17 10:30N 42°22' W 071°02'0 1.2
2017-Nov-17 10:29N 42°22' W 071°02'0 0.0
2017-Nov-17 10:00N 42°22' W 071°02'0 0.2
2017-Nov-17 09:54N 42°22' W 071°02'0 0.0
2017-Nov-17 09:29N 42°22' W 071°02'0 0.2
2017-Nov-17 09:24N 42°22' W 071°02'0 0.0
2017-Nov-17 09:00N 42°22' W 071°02'0 0.0
2017-Nov-17 08:42N 42°22' W 071°02'0 0.1
2017-Nov-17 08:29N 42°22' W 071°02'043.2
2017-Nov-17 08:29N 42°22' W 071°02'0 0.0
2017-Nov-17 08:00N 42°22' W 071°02'0 0.5
2017-Nov-17 07:57N 42°22' W 071°02'0 0.0
2017-Nov-17 07:23N 42°22' W 071°02'0 0.4
2017-Nov-17 07:21N 42°22' W 071°02'0 0.0
2017-Nov-17 04:14N 42°22' W 071°02'0 0.0
2017-Nov-17 02:33N 42°22' W 071°02'0 0.0
2017-Nov-17 02:24N 42°22' W 071°02'0 0.0
2017-Nov-17 01:15N 42°22' W 071°02'0 0.0
2017-Nov-17 00:13N 42°22' W 071°02'0 0.0
2017-Nov-16 23:59N 42°22' W 071°02'0 0.0
2017-Nov-16 22:38N 42°22' W 071°02'0 2.8
2017-Nov-16 22:38N 42°22' W 071°02'0 0.0
2017-Nov-16 22:30N 42°22' W 071°02'0 0.2
2017-Nov-16 22:25N 42°22' W 071°02'0 0.0
2017-Nov-16 21:54N 42°22' W 071°02'0 0.1
2017-Nov-16 21:42N 42°22' W 071°02'0 0.1
2017-Nov-16 21:30N 42°22' W 071°02'0 3.1
2017-Nov-16 21:30N 42°22' W 071°02'0 0.0
2017-Nov-16 21:00N 42°22' W 071°02'0 0.9
2017-Nov-16 21:00N 42°22' W 071°02'0 0.0
2017-Nov-16 20:29N 42°22' W 071°02'0 1.3
2017-Nov-16 20:29N 42°22' W 071°02'0 0.0
2017-Nov-16 20:00N 42°22' W 071°02'0 0.1
2017-Nov-16 19:52N 42°22' W 071°02'0 0.0
2017-Nov-16 19:30N 42°22' W 071°02'0 1.4
2017-Nov-16 19:29N 42°22' W 071°02'0 0.0
2017-Nov-16 19:00N 42°22' W 071°02'0 0.2
2017-Nov-16 18:54N 42°22' W 071°02'0 0.0
2017-Nov-16 18:13N 42°22' W 071°02'0 0.0
2017-Nov-16 17:59N 42°22' W 071°02'0 0.0
2017-Nov-16 17:30N 42°22' W 071°02'0 0.0
2017-Nov-16 16:59N 42°22' W 071°02'0 0.0
2017-Nov-16 16:29N 42°22' W 071°02'0 0.0
2017-Nov-16 15:59N 42°22' W 071°02'0 0.0
2017-Nov-16 15:29N 42°22' W 071°02'0 0.0
2017-Nov-16 15:00N 42°22' W 071°02'0 0.0
2017-Nov-16 14:30N 42°22' W 071°02'0 0.0
2017-Nov-16 14:00N 42°22' W 071°02'0 0.0
2017-Nov-16 13:29N 42°22' W 071°02'0 0.0
2017-Nov-16 13:00N 42°22' W 071°02'0 0.0
2017-Nov-16 12:30N 42°22' W 071°02'0 0.0
2017-Nov-16 12:00N 42°22' W 071°02'0 0.0
2017-Nov-16 11:40N 42°22' W 071°02'0 0.1
2017-Nov-16 11:23N 42°22' W 071°02'0 0.0
2017-Nov-16 11:00N 42°22' W 071°02'0 0.2
2017-Nov-16 10:35N 42°22' W 071°02'0 1.1
2017-Nov-16 10:30N 42°22' W 071°02'323.7
2017-Nov-16 10:22N 42°20' W 070°58'3 8.4
2017-Nov-16 10:00N 42°22' W 071°02'6713.8
2017-Nov-16 10:00N 42°23' W 070°53'612.9
2017-Nov-16 09:30N 42°22' W 071°02'441.9
2017-Nov-16 09:24N 42°20' W 070°57'410.3
2017-Nov-16 09:00N 42°22' W 071°02'139.0
2017-Nov-16 08:58N 42°21' W 071°01'1 2.6
2017-Nov-16 08:30N 42°22' W 071°02'0 0.3
2017-Nov-16 08:29N 42°22' W 071°02'0 0.0
2017-Nov-16 08:00N 42°22' W 071°02'0 0.3
2017-Nov-16 07:59N 42°22' W 071°02'0 0.0
2017-Nov-16 07:30N 42°22' W 071°02'0 0.2
2017-Nov-16 07:27N 42°22' W 071°02'0 0.0
2017-Nov-16 07:00N 42°22' W 071°02'0 0.0
2017-Nov-16 06:50N 42°22' W 071°02'0 0.0
2017-Nov-16 06:30N 42°22' W 071°02'0 0.1
2017-Nov-16 06:26N 42°22' W 071°02'0 0.0
2017-Nov-16 05:58N 42°22' W 071°02'380.6
2017-Nov-16 05:56N 42°20' W 070°59'3 6.1
2017-Nov-16 05:30N 42°22' W 071°02'53743.9
2017-Nov-16 05:30N 42°22' W 070°55'510.4
2017-Nov-16 05:00N 42°22' W 071°02'167.2
2017-Nov-16 04:59N 42°21' W 071°01'1 2.9
2017-Nov-16 04:29N 42°22' W 071°02'0 0.0
2017-Nov-16 03:59N 42°22' W 071°02'0 0.0
2017-Nov-16 03:30N 42°22' W 071°02'0 0.0
2017-Nov-16 03:00N 42°22' W 071°02'0 0.0
2017-Nov-16 02:30N 42°22' W 071°02'0 0.0
2017-Nov-16 02:00N 42°22' W 071°02'0 0.0
2017-Nov-16 01:43N 42°22' W 071°02'0 0.1
2017-Nov-16 01:30N 42°22' W 071°02'0 0.2
2017-Nov-16 01:26N 42°22' W 071°02'0 0.0
2017-Nov-16 01:00N 42°22' W 071°02'0 1.9
2017-Nov-16 01:00N 42°22' W 071°02'0 0.0
2017-Nov-16 00:29N 42°22' W 071°02'0 1.9
2017-Nov-16 00:29N 42°22' W 071°02'0 0.0
2017-Nov-16 00:00N 42°22' W 071°02'0 0.2
2017-Nov-15 23:56N 42°22' W 071°02'0 0.0
2017-Nov-15 23:30N 42°22' W 071°02'0 1.8
2017-Nov-15 23:30N 42°22' W 071°02'0 0.0
2017-Nov-15 23:00N 42°22' W 071°02'0 0.3
2017-Nov-15 22:58N 42°22' W 071°02'0 0.0
2017-Nov-15 22:30N 42°22' W 071°02'0 0.5
2017-Nov-15 22:28N 42°22' W 071°02'0 0.0
2017-Nov-15 22:00N 42°22' W 071°02'0 1.2
2017-Nov-15 21:59N 42°22' W 071°02'0 0.0
2017-Nov-15 21:30N 42°22' W 071°02'0 2.7
2017-Nov-15 21:30N 42°22' W 071°02'0 0.0
2017-Nov-15 21:00N 42°22' W 071°02'0 0.8
2017-Nov-15 20:59N 42°22' W 071°02'0 0.0
2017-Nov-15 20:30N 42°22' W 071°02'0 1.5
2017-Nov-15 20:29N 42°22' W 071°02'0 0.0
2017-Nov-15 19:58N 42°22' W 071°02'0 0.4
2017-Nov-15 19:56N 42°22' W 071°02'0 0.0
2017-Nov-15 19:30N 42°22' W 071°02'0 2.9
2017-Nov-15 19:29N 42°22' W 071°02'0 0.0
2017-Nov-15 18:55N 42°22' W 071°02'0 0.0
2017-Nov-15 18:27N 42°22' W 071°02'0 0.0
2017-Nov-15 17:59N 42°22' W 071°02'0 0.0
2017-Nov-15 17:26N 42°22' W 071°02'0 0.0
2017-Nov-15 16:52N 42°22' W 071°02'0 0.0
2017-Nov-15 16:30N 42°22' W 071°02'1 1.6
2017-Nov-15 15:59N 42°22' W 071°03'142.0
2017-Nov-15 15:58N 42°22' W 071°02'0 0.0
2017-Nov-15 15:26N 42°22' W 071°02'229.0
2017-Nov-15 15:21N 42°20' W 070°60'2 4.6
2017-Nov-15 14:53N 42°22' W 071°02'6294.4
2017-Nov-15 14:51N 42°23' W 070°53'616.9
2017-Nov-15 14:29N 42°22' W 071°02'52488.2
2017-Nov-15 14:29N 42°22' W 070°55'2 3.8
2017-Nov-15 14:00N 42°23' W 070°53'744.1
2017-Nov-15 13:51N 42°22' W 071°02'616.8
2017-Nov-15 13:28N 42°23' W 070°53'639.0
2017-Nov-15 13:18N 42°22' W 071°02'0 0.0
2017-Nov-15 13:00N 42°22' W 071°02'4215.5
2017-Nov-15 12:59N 42°21' W 070°56'4 8.7
2017-Nov-15 12:29N 42°22' W 071°02'7182.7
2017-Nov-15 12:27N 42°23' W 070°53'4 9.6
2017-Nov-15 12:00N 42°20' W 070°58'3108.2
2017-Nov-15 11:58N 42°22' W 071°02'0 0.0
2017-Nov-15 11:30N 42°22' W 071°02'341.6
2017-Nov-15 11:26N 42°20' W 070°59'3 6.4
2017-Nov-15 11:00N 42°22' W 071°02'0 0.3
2017-Nov-15 10:56N 42°22' W 071°02'0 0.0
2017-Nov-15 10:30N 42°22' W 071°02'0 0.1
2017-Nov-15 10:22N 42°22' W 071°02'0 0.0
2017-Nov-15 10:00N 42°22' W 071°02'0 0.0
2017-Nov-15 09:30N 42°22' W 071°02'0 0.1
2017-Nov-15 09:10N 42°22' W 071°02'0 0.1
2017-Nov-15 08:59N 42°22' W 071°02'0 0.1
2017-Nov-15 08:47N 42°22' W 071°02'0 0.0
2017-Nov-15 08:29N 42°22' W 071°02'0 1.4
2017-Nov-15 08:28N 42°22' W 071°02'0 0.0
2017-Nov-15 07:58N 42°22' W 071°02'0 0.0
2017-Nov-15 07:19N 42°22' W 071°02'0 0.0
2017-Nov-15 06:43N 42°22' W 071°02'0 0.0
2017-Nov-15 06:22N 42°22' W 071°02'0 0.0
2017-Nov-15 06:07N 42°22' W 071°02'0 0.0
2017-Nov-15 05:59N 42°22' W 071°02'0 0.1
2017-Nov-15 05:50N 42°22' W 071°02'0 0.0
2017-Nov-15 05:25N 42°22' W 071°02'0 0.0
2017-Nov-15 05:00N 42°22' W 071°02'0 0.1
2017-Nov-15 04:51N 42°22' W 071°02'0 0.0
2017-Nov-15 04:28N 42°22' W 071°02'0 0.1
2017-Nov-15 04:21N 42°22' W 071°02'0 0.0
2017-Nov-15 03:57N 42°22' W 071°02'0 7.2
2017-Nov-15 03:57N 42°22' W 071°02'0 0.0
2017-Nov-15 03:30N 42°22' W 071°02'6 9.6
2017-Nov-15 02:50N 42°23' W 070°53'411.3
2017-Nov-15 02:30N 42°20' W 070°57'411.9
2017-Nov-15 02:09N 42°22' W 071°02'0 0.0
2017-Nov-15 01:59N 42°22' W 071°02'0 0.1
2017-Nov-15 01:57N 42°22' W 071°02'0 0.0
2017-Nov-15 01:29N 42°22' W 071°02'0 0.7
2017-Nov-15 01:29N 42°22' W 071°02'0 0.0
2017-Nov-15 01:00N 42°22' W 071°02'0 0.2
2017-Nov-15 00:59N 42°22' W 071°02'0 0.0
2017-Nov-15 00:29N 42°22' W 071°02'0 0.2
2017-Nov-15 00:28N 42°22' W 071°02'0 0.0
2017-Nov-15 00:00N 42°22' W 071°02'0 0.1
2017-Nov-14 23:56N 42°22' W 071°02'0 0.0
2017-Nov-14 23:28N 42°22' W 071°02'0 1.2
2017-Nov-14 23:28N 42°22' W 071°02'0 0.0
2017-Nov-14 23:00N 42°22' W 071°02'5 9.0
2017-Nov-14 22:24N 42°22' W 070°55'511.7
2017-Nov-14 22:00N 42°24' W 070°49'4 7.8
2017-Nov-14 21:30N 42°25' W 070°55'0 0.6
2017-Nov-14 21:00N 42°25' W 070°54'2 4.6
2017-Nov-14 20:30N 42°24' W 070°51'839.0
2017-Nov-14 20:18N 42°22' W 071°02'4 8.7
2017-Nov-14 19:52N 42°20' W 070°57'4 3.8
2017-Nov-14 18:53N 42°22' W 071°02'0 0.0
2017-Nov-14 18:30N 42°22' W 071°02'0 0.0
2017-Nov-14 17:56N 42°22' W 071°02'0 0.0
2017-Nov-14 16:11N 42°22' W 071°02'0 0.1
2017-Nov-14 15:54N 42°22' W 071°02'0 0.1
2017-Nov-14 15:44N 42°22' W 071°02'0 0.0
2017-Nov-14 15:29N 42°22' W 071°02'0 0.5
2017-Nov-14 15:26N 42°22' W 071°02'0 0.0
2017-Nov-14 14:53N 42°22' W 071°02'0 0.2
2017-Nov-14 14:48N 42°22' W 071°02'0 0.0
2017-Nov-14 14:26N 42°22' W 071°02'0 0.9
2017-Nov-14 14:25N 42°22' W 071°02'0 0.0
2017-Nov-14 13:59N 42°22' W 071°02'0 0.1
2017-Nov-14 13:49N 42°22' W 071°02'0 0.0
2017-Nov-14 13:30N 42°22' W 071°02'0 0.5
2017-Nov-14 13:27N 42°22' W 071°02'0 0.0
2017-Nov-14 12:59N 42°22' W 071°02'0 1.1
2017-Nov-14 12:58N 42°22' W 071°02'0 0.0
2017-Nov-14 12:30N 42°22' W 071°02'0 1.0
2017-Nov-14 12:29N 42°22' W 071°02'2 4.0
2017-Nov-14 12:01N 42°23' W 071°03'232.7
2017-Nov-14 11:57N 42°22' W 071°02'0 0.0
2017-Nov-14 11:30N 42°22' W 071°02'3187.1
2017-Nov-14 11:30N 42°20' W 070°59'611.5
2017-Nov-14 11:00N 42°23' W 070°52'71143.9
2017-Nov-14 11:00N 42°22' W 071°02'1019.9
2017-Nov-14 10:30N 42°24' W 070°49'10600.9
2017-Nov-14 10:29N 42°22' W 071°02'714.4
2017-Nov-14 10:00N 42°24' W 070°53'0 0.8
2017-Nov-14 09:30N 42°24' W 070°53'2 4.7
2017-Nov-14 09:00N 42°24' W 070°50'915.6
2017-Nov-14 08:25N 42°22' W 071°02'1 5.8
2017-Nov-14 08:11N 42°21' W 071°01'1 2.0
2017-Nov-14 07:33N 42°22' W 071°02'0 0.0
2017-Nov-14 07:07N 42°22' W 071°02'0 1.0
2017-Nov-14 07:06N 42°22' W 071°02'0 0.2
2017-Nov-14 06:59N 42°22' W 071°02'013.0
2017-Nov-14 06:59N 42°22' W 071°02'0 0.0
2017-Nov-14 06:28N 42°22' W 071°02'0 1.2
2017-Nov-14 06:27N 42°22' W 071°02'0 0.0
2017-Nov-14 05:57N 42°22' W 071°02'0 0.4
2017-Nov-14 05:56N 42°22' W 071°02'0 0.0
2017-Nov-14 02:56N 42°22' W 071°02'0 0.0
2017-Nov-14 02:29N 42°22' W 071°02'0 0.0
2017-Nov-14 01:57N 42°22' W 071°02'2104.0
2017-Nov-14 01:56N 42°20' W 070°59'714.7
2017-Nov-14 01:29N 42°24' W 070°52'829.3
2017-Nov-14 01:13N 42°22' W 071°02'0 0.0
2017-Nov-14 00:57N 42°22' W 071°02'464.3
2017-Nov-14 00:53N 42°20' W 070°56'4 3.8
2017-Nov-13 23:44N 42°22' W 071°02'1 8.6
2017-Nov-13 23:36N 42°21' W 071°01'1 2.4
2017-Nov-13 23:21N 42°21' W 071°02'611.8
2017-Nov-13 22:53N 42°23' W 070°54'677.7
2017-Nov-13 22:49N 42°22' W 071°02'3 9.8
2017-Nov-13 22:29N 42°20' W 070°58'3 0.2
2017-Nov-13 01:45N 42°22' W 071°02'0 0.0
2017-Nov-13 01:25N 42°22' W 071°02'3 6.1
2017-Nov-13 00:55N 42°20' W 070°58'4 5.9
2017-Nov-13 00:17N 42°23' W 070°54'2 7.9
2017-Nov-13 00:00N 42°24' W 070°51'6 7.5
2017-Nov-12 23:15N 42°20' W 070°58'4 2.5
2017-Nov-12 21:51N 42°22' W 071°02'0 0.0
2017-Nov-12 17:55N 42°22' W 071°02'0 0.0
2017-Nov-12 17:30N 42°22' W 071°02'0 0.0
2017-Nov-12 16:49N 42°22' W 071°02'0 0.0
2017-Nov-12 13:58N 42°22' W 071°02'0 0.0
2017-Nov-12 13:30N 42°22' W 071°02'0 0.0
2017-Nov-12 13:04N 42°22' W 071°02'0 0.2
2017-Nov-12 13:00N 42°22' W 071°02'0 0.2
2017-Nov-12 12:54N 42°22' W 071°02'0 0.0
2017-Nov-12 12:30N 42°22' W 071°02'0 0.5
2017-Nov-12 12:28N 42°22' W 071°02'0 0.0
2017-Nov-12 12:01N 42°22' W 071°02'0 1.7
2017-Nov-12 12:00N 42°22' W 071°02'0 0.0
2017-Nov-12 11:31N 42°22' W 071°02'0 1.4
2017-Nov-12 11:30N 42°22' W 071°02'0 0.0
2017-Nov-12 10:52N 42°22' W 071°02'0 0.0
2017-Nov-12 10:20N 42°22' W 071°02'0 0.1
2017-Nov-12 10:04N 42°22' W 071°02'0 0.0
2017-Nov-12 10:00N 42°22' W 071°02'0 1.1
2017-Nov-12 09:59N 42°22' W 071°02'0 0.0
2017-Nov-12 09:30N 42°22' W 071°02'445.6
2017-Nov-12 09:26N 42°20' W 070°57'716.4
2017-Nov-12 09:00N 42°24' W 070°49'10433.3
2017-Nov-12 08:59N 42°22' W 071°02'4 8.0
2017-Nov-12 08:27N 42°21' W 070°56'4 9.9
2017-Nov-12 08:00N 42°22' W 071°02'0 0.0
2017-Nov-12 07:28N 42°22' W 071°02'0 0.0
2017-Nov-12 07:00N 42°22' W 071°02'0 0.0
2017-Nov-12 06:30N 42°22' W 071°02'0 0.1
2017-Nov-12 06:10N 42°22' W 071°02'0 0.1
2017-Nov-12 06:00N 42°22' W 071°02'0 0.2
2017-Nov-12 05:57N 42°22' W 071°02'0 0.0
2017-Nov-12 05:29N 42°22' W 071°02'0 0.9
2017-Nov-12 05:28N 42°22' W 071°02'0 0.0
2017-Nov-12 05:00N 42°22' W 071°02'0 0.9
2017-Nov-12 04:59N 42°22' W 071°02'0 0.0
2017-Nov-12 04:28N 42°22' W 071°02'0 0.2
2017-Nov-12 04:24N 42°22' W 071°02'0 0.0
2017-Nov-12 04:00N 42°22' W 071°02'0 0.2
2017-Nov-12 03:57N 42°22' W 071°02'0 0.0
2017-Nov-12 03:30N 42°22' W 071°02'0 0.5
2017-Nov-12 03:28N 42°22' W 071°02'0 0.0
2017-Nov-12 03:00N 42°22' W 071°02'0 0.0
2017-Nov-12 02:38N 42°22' W 071°02'0 0.1
2017-Nov-12 02:29N 42°22' W 071°02'0 0.4
2017-Nov-12 02:26N 42°22' W 071°02'0 0.0
2017-Nov-12 01:57N 42°22' W 071°02'0 0.4
2017-Nov-12 01:55N 42°22' W 071°02'0 0.0
2017-Nov-12 01:30N 42°22' W 071°02'0 0.1
2017-Nov-12 01:21N 42°22' W 071°02'0 0.0
2017-Nov-12 00:57N 42°22' W 071°02'0 0.0
2017-Nov-12 00:40N 42°22' W 071°02'0 0.0
2017-Nov-12 00:28N 42°22' W 071°02'0 0.0
2017-Nov-11 23:52N 42°22' W 071°02'0 0.1
2017-Nov-11 23:40N 42°22' W 071°02'0 0.0
2017-Nov-11 23:28N 42°22' W 071°02'3 4.5
2017-Nov-11 22:51N 42°20' W 070°59'2 5.1
2017-Nov-11 22:23N 42°21' W 070°56'4 7.7
2017-Nov-11 21:54N 42°21' W 071°01'1 4.5
2017-Nov-11 21:34N 42°22' W 071°02'0 0.0
2017-Nov-11 21:30N 42°22' W 071°02'0 0.2
2017-Nov-11 21:29N 42°22' W 071°02'0 0.0
2017-Nov-11 20:59N 42°22' W 071°02'0 0.0
2017-Nov-11 20:31N 42°22' W 071°02'0 0.0
2017-Nov-11 19:42N 42°22' W 071°02'0 0.0
2017-Nov-11 18:27N 42°22' W 071°02'6 9.4
2017-Nov-11 17:47N 42°22' W 070°53'6 2.0
2017-Nov-11 14:39N 42°22' W 071°02'1 4.6
2017-Nov-11 14:28N 42°22' W 071°03'0 0.3
2017-Nov-11 14:00N 42°22' W 071°03'5 9.4
2017-Nov-11 13:30N 42°20' W 070°57'4 3.2
2017-Nov-11 12:18N 42°22' W 071°02'0 0.0
2017-Nov-11 12:02N 42°22' W 071°02'0 0.2
2017-Nov-11 12:00N 42°22' W 071°02'0 0.4
2017-Nov-11 11:59N 42°22' W 071°02'0 0.0
2017-Nov-11 11:30N 42°22' W 071°02'0 1.1
2017-Nov-11 11:30N 42°22' W 071°02'0 0.0
2017-Nov-11 11:00N 42°22' W 071°02'0 1.1
2017-Nov-11 11:00N 42°22' W 071°02'0 0.0
2017-Nov-11 10:30N 42°22' W 071°02'0 0.1
2017-Nov-11 10:24N 42°22' W 071°02'0 0.0
2017-Nov-11 10:00N 42°22' W 071°02'315.7
2017-Nov-11 09:50N 42°20' W 070°59'3 8.0
2017-Nov-11 09:30N 42°22' W 071°02'5212.4
2017-Nov-11 09:29N 42°22' W 070°55'510.3
2017-Nov-11 09:00N 42°22' W 071°02'8249.7
2017-Nov-11 08:58N 42°24' W 070°51'817.5
2017-Nov-11 08:29N 42°22' W 071°02'1 4.6
2017-Nov-11 08:13N 42°21' W 071°01'1 6.1
2017-Nov-11 08:00N 42°22' W 071°02'0 0.4
2017-Nov-11 07:58N 42°22' W 071°02'0 0.0
2017-Nov-11 07:30N 42°22' W 071°02'0 0.0
2017-Nov-11 06:59N 42°22' W 071°02'0 0.0
2017-Nov-11 06:30N 42°22' W 071°02'0 0.0
2017-Nov-11 06:00N 42°22' W 071°02'0 0.0
2017-Nov-11 05:30N 42°22' W 071°02'0 0.0
2017-Nov-11 05:00N 42°22' W 071°02'0 3.3
2017-Nov-11 05:00N 42°22' W 071°02'0 0.0
2017-Nov-11 04:29N 42°22' W 071°02'0 0.2
2017-Nov-11 04:26N 42°22' W 071°02'0 0.0
2017-Nov-11 04:00N 42°22' W 071°02'0 0.2
2017-Nov-11 03:56N 42°22' W 071°02'0 0.0
2017-Nov-11 03:29N 42°22' W 071°02'0 0.2
2017-Nov-11 03:26N 42°22' W 071°02'0 0.0
2017-Nov-11 02:59N 42°22' W 071°02'0 0.0
2017-Nov-11 02:32N 42°22' W 071°02'0 0.2
2017-Nov-11 02:25N 42°22' W 071°02'0 0.3
2017-Nov-11 02:21N 42°22' W 071°02'0 0.0
2017-Nov-11 01:55N 42°22' W 071°02'0 0.0
2017-Nov-10 22:15N 42°22' W 071°02'0 0.1
2017-Nov-10 22:10N 42°22' W 071°02'0 0.0
2017-Nov-10 22:00N 42°22' W 071°02'0 0.4
2017-Nov-10 21:57N 42°22' W 071°02'0 0.0
2017-Nov-10 21:30N 42°22' W 071°02'0 0.0
2017-Nov-10 21:00N 42°22' W 071°02'0 0.0
2017-Nov-10 20:30N 42°22' W 071°02'0 0.3
2017-Nov-10 20:27N 42°22' W 071°02'0 0.7
2017-Nov-10 20:00N 42°21' W 071°02'022.2
2017-Nov-10 19:59N 42°22' W 071°02'0 0.0
2017-Nov-10 19:29N 42°22' W 071°02'61246.9
2017-Nov-10 19:29N 42°23' W 070°54'3 6.7
2017-Nov-10 19:00N 42°24' W 070°51'3 6.2
2017-Nov-10 18:29N 42°22' W 070°54'610.2
2017-Nov-10 17:56N 42°22' W 071°02'611.1
2017-Nov-10 17:24N 42°23' W 070°54'3 8.9
2017-Nov-10 17:00N 42°25' W 070°50'9 4.8
2017-Nov-10 15:05N 42°22' W 071°02'0 0.1
2017-Nov-10 15:00N 42°22' W 071°02'0 0.0
2017-Nov-10 14:28N 42°22' W 071°02'0 0.0
2017-Nov-10 14:00N 42°22' W 071°02'0 1.4
2017-Nov-10 14:00N 42°22' W 071°02'0 0.0
2017-Nov-10 13:20N 42°22' W 071°02'0 2.9
2017-Nov-10 13:20N 42°22' W 071°02'0 0.0
2017-Nov-10 12:59N 42°22' W 071°02'0 0.8
2017-Nov-10 12:59N 42°22' W 071°02'0 0.0
2017-Nov-10 12:30N 42°22' W 071°02'0 0.6
2017-Nov-10 12:29N 42°22' W 071°02'0 0.0
2017-Nov-10 11:59N 42°22' W 071°02'0 0.2
2017-Nov-10 11:56N 42°22' W 071°02'0 0.0
2017-Nov-10 11:29N 42°22' W 071°02'0 0.9
2017-Nov-10 11:28N 42°22' W 071°02'0 0.0
2017-Nov-10 11:00N 42°22' W 071°02'0 0.0
2017-Nov-10 09:38N 42°22' W 071°02'0 0.0
2017-Nov-10 09:12N 42°22' W 071°02'0 0.0
2017-Nov-10 08:58N 42°22' W 071°02'0 0.0
2017-Nov-10 08:03N 42°22' W 071°02'0 0.0
2017-Nov-10 07:51N 42°22' W 071°02'0 0.0
2017-Nov-10 07:17N 42°22' W 071°02'0 0.0
2017-Nov-10 06:59N 42°22' W 071°02'0 0.1
2017-Nov-10 06:42N 42°22' W 071°02'0 0.0
2017-Nov-10 06:30N 42°22' W 071°02'0 1.2
2017-Nov-10 06:29N 42°22' W 071°02'0 0.0
2017-Nov-10 05:59N 42°22' W 071°02'0 1.3
2017-Nov-10 05:59N 42°22' W 071°02'0 0.0
2017-Nov-10 05:30N 42°22' W 071°02'0 0.2
2017-Nov-10 05:26N 42°22' W 071°02'0 0.0
2017-Nov-10 04:59N 42°22' W 071°02'0 0.5
2017-Nov-10 04:58N 42°22' W 071°02'0 0.0
2017-Nov-10 04:28N 42°22' W 071°02'0 8.1
2017-Nov-10 04:28N 42°22' W 071°02'0 0.0
2017-Nov-10 04:00N 42°22' W 071°02'0 4.6
2017-Nov-10 04:00N 42°22' W 071°02'0 0.0
2017-Nov-10 03:29N 42°22' W 071°02'016.2
2017-Nov-10 03:29N 42°22' W 071°02'0 0.0
2017-Nov-10 03:00N 42°22' W 071°02'0 0.8
2017-Nov-10 02:59N 42°22' W 071°02'0 0.0
2017-Nov-10 02:30N 42°22' W 071°02'0 1.0
2017-Nov-10 02:30N 42°22' W 071°02'0 0.0
2017-Nov-10 01:59N 42°22' W 071°02'0 1.1
2017-Nov-10 01:58N 42°22' W 071°02'0 0.0
2017-Nov-10 01:28N 42°22' W 071°02'0 1.5
2017-Nov-10 01:27N 42°22' W 071°02'0 0.0
2017-Nov-10 00:59N 42°22' W 071°02'0 0.3
2017-Nov-10 00:55N 42°22' W 071°02'0 0.0
2017-Nov-10 00:30N 42°22' W 071°02'0 1.0
2017-Nov-10 00:30N 42°22' W 071°02'  

Dump ship's entire track history